Time,TemperatureF,DewpointF,PressureIn,WindDirection,WindDirectionDegrees,WindSpeedMPH,WindSpeedGustMPH,Humidity,HourlyPrecipIn,Conditions,Clouds,dailyrainin,SolarRadiationWatts/m^2,SoftwareType,DateUTC
2013-01-13 00:22:00,29.0,-1.0,-100.00,NNW,348,3.0,5.0,27,0.00,,,0.00,0.000000,,2013-01-13 07:22:00,
2013-01-13 00:32:00,29.0,-1.0,-100.00,NNW,348,3.0,5.0,27,0.00,,,0.00,0.000000,,2013-01-13 07:32:00,
2013-01-13 00:42:00,29.0,-1.0,-100.00,NNW,348,3.0,5.0,27,0.00,,,0.00,0.000000,,2013-01-13 07:42:00,
2013-01-13 00:52:00,27.0,0.0,-100.00,NNW,340,4.0,6.0,30,0.00,,,0.00,0.000000,,2013-01-13 07:52:00,
2013-01-13 01:12:00,27.0,0.0,-100.00,NNW,340,4.0,6.0,30,0.00,,,0.00,0.000000,,2013-01-13 08:12:00,
2013-01-13 01:22:00,27.0,0.0,-100.00,NNW,340,4.0,6.0,30,0.00,,,0.00,0.000000,,2013-01-13 08:22:00,
2013-01-13 01:32:00,27.0,0.0,-100.00,NNW,340,4.0,6.0,30,0.00,,,0.00,0.000000,,2013-01-13 08:32:00,
2013-01-13 01:42:00,27.0,0.0,-100.00,NNW,340,4.0,6.0,30,0.00,,,0.00,0.000000,,2013-01-13 08:42:00,
2013-01-13 01:52:00,29.0,-1.0,-100.00,NNW,343,3.0,7.0,27,0.00,,,0.00,0.000000,,2013-01-13 08:52:00,
2013-01-13 02:12:00,29.0,-1.0,-100.00,NNW,343,3.0,7.0,27,0.00,,,0.00,0.000000,,2013-01-13 09:12:00,
2013-01-13 02:22:00,29.0,-1.0,-100.00,NNW,343,3.0,7.0,27,0.00,,,0.00,0.000000,,2013-01-13 09:22:00,
2013-01-13 02:32:00,29.0,-1.0,-100.00,NNW,343,3.0,7.0,27,0.00,,,0.00,0.000000,,2013-01-13 09:32:00,
2013-01-13 02:42:00,29.0,-1.0,-100.00,NNW,343,3.0,7.0,27,0.00,,,0.00,0.000000,,2013-01-13 09:42:00,
2013-01-13 02:52:00,29.0,-1.0,-100.00,NNW,327,6.0,10.0,27,0.00,,,0.00,0.000000,,2013-01-13 09:52:00,
2013-01-13 03:12:00,29.0,-1.0,-100.00,NNW,327,6.0,10.0,27,0.00,,,0.00,0.000000,,2013-01-13 10:12:00,
2013-01-13 03:22:00,29.0,-1.0,-100.00,NNW,327,6.0,10.0,27,0.00,,,0.00,0.000000,,2013-01-13 10:22:00,
2013-01-13 03:32:00,29.0,-1.0,-100.00,NNW,327,6.0,10.0,27,0.00,,,0.00,0.000000,,2013-01-13 10:32:00,
2013-01-13 03:42:00,29.0,-1.0,-100.00,NNW,327,6.0,10.0,27,0.00,,,0.00,0.000000,,2013-01-13 10:42:00,
2013-01-13 03:52:00,29.0,0.0,-100.00,NNW,328,7.0,11.0,28,0.00,,,0.00,0.000000,,2013-01-13 10:52:00,
2013-01-13 04:12:00,29.0,0.0,-100.00,NNW,328,7.0,11.0,28,0.00,,,0.00,0.000000,,2013-01-13 11:12:00,
2013-01-13 04:22:00,29.0,0.0,-100.00,NNW,328,7.0,11.0,28,0.00,,,0.00,0.000000,,2013-01-13 11:22:00,
2013-01-13 04:32:00,29.0,0.0,-100.00,NNW,328,7.0,11.0,28,0.00,,,0.00,0.000000,,2013-01-13 11:32:00,
2013-01-13 04:42:00,29.0,0.0,-100.00,NNW,328,7.0,11.0,28,0.00,,,0.00,0.000000,,2013-01-13 11:42:00,
2013-01-13 04:52:00,29.0,1.0,-100.00,North,349,7.0,12.0,29,0.00,,,0.00,0.000000,,2013-01-13 11:52:00,
2013-01-13 05:12:00,29.0,1.0,-100.00,North,349,7.0,12.0,29,0.00,,,0.00,0.000000,,2013-01-13 12:12:00,
2013-01-13 05:22:00,29.0,1.0,-100.00,North,349,7.0,12.0,29,0.00,,,0.00,0.000000,,2013-01-13 12:22:00,
2013-01-13 05:32:00,29.0,1.0,-100.00,North,349,7.0,12.0,29,0.00,,,0.00,0.000000,,2013-01-13 12:32:00,
2013-01-13 05:42:00,29.0,1.0,-100.00,North,349,7.0,12.0,29,0.00,,,0.00,0.000000,,2013-01-13 12:42:00,
2013-01-13 05:52:00,28.0,2.0,-100.00,North,351,10.0,15.0,32,0.00,,,0.00,0.000000,,2013-01-13 12:52:00,
2013-01-13 06:12:00,28.0,2.0,-100.00,North,351,10.0,15.0,32,0.00,,,0.00,0.000000,,2013-01-13 13:12:00,
2013-01-13 06:22:00,28.0,2.0,-100.00,North,351,10.0,15.0,32,0.00,,,0.00,0.000000,,2013-01-13 13:22:00,
2013-01-13 06:32:00,28.0,2.0,-100.00,North,351,10.0,15.0,32,0.00,,,0.00,0.000000,,2013-01-13 13:32:00,
2013-01-13 06:42:00,28.0,2.0,-100.00,North,351,10.0,15.0,32,0.00,,,0.00,0.000000,,2013-01-13 13:42:00,
2013-01-13 06:52:00,25.0,2.0,-100.00,West,271,0.0,13.0,37,0.00,,,0.00,0.000000,,2013-01-13 13:52:00,
2013-01-13 07:22:00,25.0,2.0,-100.00,West,271,0.0,13.0,37,0.00,,,0.00,0.000000,,2013-01-13 14:22:00,
2013-01-13 07:33:00,25.0,2.0,-100.00,West,271,0.0,13.0,37,0.00,,,0.00,0.000000,,2013-01-13 14:33:00,
2013-01-13 07:42:00,25.0,2.0,-100.00,West,271,0.0,13.0,37,0.00,,,0.00,0.000000,,2013-01-13 14:42:00,
2013-01-13 07:52:00,27.0,1.0,-100.00,NNW,341,7.0,11.0,32,0.00,,,0.00,1.000000,,2013-01-13 14:52:00,
2013-01-13 08:12:00,27.0,1.0,-100.00,NNW,341,7.0,11.0,32,0.00,,,0.00,1.000000,,2013-01-13 15:12:00,
2013-01-13 08:22:00,27.0,1.0,-100.00,NNW,341,7.0,11.0,32,0.00,,,0.00,1.000000,,2013-01-13 15:22:00,
2013-01-13 08:33:00,27.0,1.0,-100.00,NNW,341,7.0,11.0,32,0.00,,,0.00,1.000000,,2013-01-13 15:33:00,
2013-01-13 08:42:00,27.0,1.0,-100.00,NNW,341,7.0,11.0,32,0.00,,,0.00,1.000000,,2013-01-13 15:42:00,
2013-01-13 08:52:00,32.0,2.0,-100.00,NNW,328,5.0,11.0,27,0.00,,,0.00,102.000000,,2013-01-13 15:52:00,
2013-01-13 09:22:00,32.0,2.0,-100.00,NNW,328,5.0,11.0,27,0.00,,,0.00,102.000000,,2013-01-13 16:22:00,
2013-01-13 09:33:00,32.0,2.0,-100.00,NNW,328,5.0,11.0,27,0.00,,,0.00,102.000000,,2013-01-13 16:33:00,
2013-01-13 09:42:00,32.0,2.0,-100.00,NNW,328,5.0,11.0,27,0.00,,,0.00,102.000000,,2013-01-13 16:42:00,
2013-01-13 09:52:00,35.0,1.0,-100.00,NNE,17,3.0,9.0,23,0.00,,,0.00,350.000000,,2013-01-13 16:52:00,
2013-01-13 10:22:00,35.0,1.0,-100.00,NNE,17,3.0,9.0,23,0.00,,,0.00,350.000000,,2013-01-13 17:22:00,
2013-01-13 10:33:00,35.0,1.0,-100.00,NNE,17,3.0,9.0,23,0.00,,,0.00,350.000000,,2013-01-13 17:33:00,
2013-01-13 10:42:00,35.0,1.0,-100.00,NNE,17,3.0,9.0,23,0.00,,,0.00,350.000000,,2013-01-13 17:42:00,
2013-01-13 10:52:00,35.0,1.0,-100.00,WNW,291,6.0,12.0,23,0.00,,,0.00,569.000000,,2013-01-13 17:52:00,
2013-01-13 11:12:00,35.0,1.0,-100.00,WNW,291,6.0,12.0,23,0.00,,,0.00,569.000000,,2013-01-13 18:12:00,
2013-01-13 11:22:00,35.0,1.0,-100.00,WNW,291,6.0,12.0,23,0.00,,,0.00,569.000000,,2013-01-13 18:22:00,
2013-01-13 11:32:00,35.0,1.0,-100.00,WNW,291,6.0,12.0,23,0.00,,,0.00,569.000000,,2013-01-13 18:32:00,
2013-01-13 11:42:00,35.0,1.0,-100.00,WNW,291,6.0,12.0,23,0.00,,,0.00,569.000000,,2013-01-13 18:42:00,
2013-01-13 11:52:00,35.0,2.0,-100.00,NW,305,4.0,13.0,24,0.00,,,0.00,725.000000,,2013-01-13 18:52:00,
2013-01-13 12:12:00,35.0,2.0,-100.00,NW,305,4.0,13.0,24,0.00,,,0.00,725.000000,,2013-01-13 19:12:00,
2013-01-13 12:22:00,35.0,2.0,-100.00,NW,305,4.0,13.0,24,0.00,,,0.00,725.000000,,2013-01-13 19:22:00,
2013-01-13 12:33:00,35.0,2.0,-100.00,NW,305,4.0,13.0,24,0.00,,,0.00,725.000000,,2013-01-13 19:33:00,
2013-01-13 12:42:00,35.0,2.0,-100.00,NW,305,4.0,13.0,24,0.00,,,0.00,725.000000,,2013-01-13 19:42:00,
2013-01-13 12:52:00,34.0,4.0,-100.00,WNW,294,6.0,14.0,27,0.00,,,0.00,775.000000,,2013-01-13 19:52:00,
2013-01-13 13:12:00,34.0,4.0,-100.00,WNW,294,6.0,14.0,27,0.00,,,0.00,775.000000,,2013-01-13 20:12:00,
2013-01-13 13:22:00,34.0,4.0,-100.00,WNW,294,6.0,14.0,27,0.00,,,0.00,775.000000,,2013-01-13 20:22:00,
2013-01-13 13:32:00,34.0,4.0,-100.00,WNW,294,6.0,14.0,27,0.00,,,0.00,775.000000,,2013-01-13 20:32:00,
2013-01-13 13:43:00,34.0,4.0,-100.00,WNW,294,6.0,14.0,27,0.00,,,0.00,775.000000,,2013-01-13 20:43:00,
2013-01-13 13:52:00,34.0,3.0,-100.00,NNW,335,8.0,14.0,26,0.00,,,0.00,726.000000,,2013-01-13 20:52:00,
2013-01-13 14:12:00,34.0,3.0,-100.00,NNW,335,8.0,14.0,26,0.00,,,0.00,726.000000,,2013-01-13 21:12:00,
2013-01-13 14:23:00,34.0,3.0,-100.00,NNW,335,8.0,14.0,26,0.00,,,0.00,726.000000,,2013-01-13 21:23:00,
2013-01-13 14:32:00,34.0,3.0,-100.00,NNW,335,8.0,14.0,26,0.00,,,0.00,726.000000,,2013-01-13 21:32:00,
2013-01-13 14:42:00,34.0,3.0,-100.00,NNW,335,8.0,14.0,26,0.00,,,0.00,726.000000,,2013-01-13 21:42:00,
2013-01-13 14:52:00,33.0,3.0,-100.00,NNW,343,5.0,18.0,27,0.00,,,0.00,543.000000,,2013-01-13 21:52:00,
2013-01-13 15:12:00,33.0,3.0,-100.00,NNW,343,5.0,18.0,27,0.00,,,0.00,543.000000,,2013-01-13 22:12:00,
2013-01-13 15:22:00,33.0,3.0,-100.00,NNW,343,5.0,18.0,27,0.00,,,0.00,543.000000,,2013-01-13 22:22:00,
2013-01-13 15:33:00,33.0,3.0,-100.00,NNW,343,5.0,18.0,27,0.00,,,0.00,543.000000,,2013-01-13 22:33:00,
2013-01-13 15:42:00,33.0,3.0,-100.00,NNW,343,5.0,18.0,27,0.00,,,0.00,543.000000,,2013-01-13 22:42:00,
2013-01-13 15:52:00,34.0,2.0,-100.00,North,9,7.0,15.0,25,0.00,,,0.00,325.000000,,2013-01-13 22:52:00,
2013-01-13 16:12:00,34.0,2.0,-100.00,North,9,7.0,15.0,25,0.00,,,0.00,325.000000,,2013-01-13 23:12:00,
2013-01-13 16:22:00,34.0,2.0,-100.00,North,9,7.0,15.0,25,0.00,,,0.00,325.000000,,2013-01-13 23:22:00,
2013-01-13 16:32:00,34.0,2.0,-100.00,North,9,7.0,15.0,25,0.00,,,0.00,325.000000,,2013-01-13 23:32:00,
2013-01-13 16:42:00,34.0,2.0,-100.00,North,9,7.0,15.0,25,0.00,,,0.00,325.000000,,2013-01-13 23:42:00,
2013-01-13 16:52:00,32.0,2.0,-100.00,NNW,333,4.0,13.0,27,0.00,,,0.00,133.000000,,2013-01-13 23:52:00,
2013-01-13 17:12:00,32.0,2.0,-100.00,NNW,333,4.0,13.0,27,0.00,,,0.00,133.000000,,2013-01-14 00:12:00,
2013-01-13 17:22:00,32.0,2.0,-100.00,NNW,333,4.0,13.0,27,0.00,,,0.00,133.000000,,2013-01-14 00:22:00,
2013-01-13 17:32:00,32.0,2.0,-100.00,NNW,333,4.0,13.0,27,0.00,,,0.00,133.000000,,2013-01-14 00:32:00,
2013-01-13 17:42:00,32.0,2.0,-100.00,NNW,333,4.0,13.0,27,0.00,,,0.00,133.000000,,2013-01-14 00:42:00,
2013-01-13 17:52:00,29.0,1.0,-100.00,West,262,6.0,15.0,30,0.00,,,0.00,43.000000,,2013-01-14 00:52:00,
2013-01-13 18:12:00,29.0,1.0,-100.00,West,262,6.0,15.0,30,0.00,,,0.00,43.000000,,2013-01-14 01:12:00,
2013-01-13 18:22:00,29.0,1.0,-100.00,West,262,6.0,15.0,30,0.00,,,0.00,43.000000,,2013-01-14 01:22:00,
2013-01-13 18:32:00,29.0,1.0,-100.00,West,262,6.0,15.0,30,0.00,,,0.00,43.000000,,2013-01-14 01:32:00,
2013-01-13 18:42:00,29.0,1.0,-100.00,West,262,6.0,15.0,30,0.00,,,0.00,43.000000,,2013-01-14 01:42:00,
2013-01-13 18:52:00,28.0,1.0,-100.00,NNW,329,10.0,20.0,30,0.00,,,0.00,0.000000,,2013-01-14 01:52:00,
2013-01-13 19:12:00,28.0,1.0,-100.00,NNW,329,10.0,20.0,30,0.00,,,0.00,0.000000,,2013-01-14 02:12:00,
2013-01-13 19:22:00,28.0,1.0,-100.00,NNW,329,10.0,20.0,30,0.00,,,0.00,0.000000,,2013-01-14 02:22:00,
2013-01-13 19:32:00,28.0,1.0,-100.00,NNW,329,10.0,20.0,30,0.00,,,0.00,0.000000,,2013-01-14 02:32:00,
2013-01-13 19:42:00,28.0,1.0,-100.00,NNW,329,10.0,20.0,30,0.00,,,0.00,0.000000,,2013-01-14 02:42:00,
2013-01-13 19:52:00,27.0,0.0,-100.00,NNW,348,11.0,19.0,30,0.00,,,0.00,0.000000,,2013-01-14 02:52:00,
2013-01-13 20:22:00,27.0,0.0,-100.00,NNW,348,11.0,19.0,30,0.00,,,0.00,0.000000,,2013-01-14 03:22:00,
2013-01-13 20:32:00,27.0,0.0,-100.00,NNW,348,11.0,19.0,30,0.00,,,0.00,0.000000,,2013-01-14 03:32:00,
2013-01-13 20:42:00,27.0,0.0,-100.00,NNW,348,11.0,19.0,30,0.00,,,0.00,0.000000,,2013-01-14 03:42:00,
2013-01-13 20:52:00,27.0,2.0,-100.00,North,9,9.0,27.0,34,0.00,,,0.00,0.000000,,2013-01-14 03:52:00,
2013-01-13 21:12:00,27.0,2.0,-100.00,North,9,9.0,27.0,34,0.00,,,0.00,0.000000,,2013-01-14 04:12:00,
2013-01-13 21:22:00,27.0,2.0,-100.00,North,9,9.0,27.0,34,0.00,,,0.00,0.000000,,2013-01-14 04:22:00,
2013-01-13 21:32:00,27.0,2.0,-100.00,North,9,9.0,27.0,34,0.00,,,0.00,0.000000,,2013-01-14 04:32:00,
2013-01-13 21:42:00,27.0,2.0,-100.00,North,9,9.0,27.0,34,0.00,,,0.00,0.000000,,2013-01-14 04:42:00,
2013-01-13 21:52:00,26.0,0.0,-100.00,North,357,12.0,23.0,31,0.00,,,0.00,0.000000,,2013-01-14 04:52:00,
2013-01-13 22:12:00,26.0,0.0,-100.00,North,357,12.0,23.0,31,0.00,,,0.00,0.000000,,2013-01-14 05:12:00,
2013-01-13 22:22:00,26.0,0.0,-100.00,North,357,12.0,23.0,31,0.00,,,0.00,0.000000,,2013-01-14 05:22:00,
2013-01-13 22:32:00,26.0,0.0,-100.00,North,357,12.0,23.0,31,0.00,,,0.00,0.000000,,2013-01-14 05:32:00,
2013-01-13 22:42:00,26.0,0.0,-100.00,North,357,12.0,23.0,31,0.00,,,0.00,0.000000,,2013-01-14 05:42:00,
2013-01-13 22:52:00,25.0,-1.0,-100.00,North,350,16.0,24.0,31,0.00,,,0.00,0.000000,,2013-01-14 05:52:00,
2013-01-13 23:12:00,25.0,-1.0,-100.00,North,350,16.0,24.0,31,0.00,,,0.00,0.000000,,2013-01-14 06:12:00,
2013-01-13 23:22:00,25.0,-1.0,-100.00,North,350,16.0,24.0,31,0.00,,,0.00,0.000000,,2013-01-14 06:22:00,
2013-01-13 23:32:00,25.0,-1.0,-100.00,North,350,16.0,24.0,31,0.00,,,0.00,0.000000,,2013-01-14 06:32:00,
2013-01-13 23:42:00,25.0,-1.0,-100.00,North,350,16.0,24.0,31,0.00,,,0.00,0.000000,,2013-01-14 06:42:00,
2013-01-13 23:52:00,23.0,-2.0,-100.00,North,359,12.0,26.0,32,0.00,,,0.00,0.000000,,2013-01-14 06:52:00,